Time;durP1;ratioP1;P1;durP2;ratioP2;P2;SDS_P1;SDS_P2;PMS_P1;PMS_P2;Temp;Humidity;BMP_temperature;BMP_pressure;BME280_temperature;BME280_humidity;BME280_pressure;Samples;Min_cycle;Max_cycle;Signal;HPM_P1;HPM_P2
2023/01/19 00:01:29;;;;;;;26.75;11.32;;;;;;;0.37;75.47;99768.28;5049182;28;20045;-84
2023/01/19 00:03:55;;;;;;;29.08;11.70;;;;;;;0.33;75.42;99771.59;5033389;28;20109;-84
2023/01/19 00:06:21;;;;;;;28.45;11.07;;;;;;;0.32;75.40;99754.50;5016678;28;20060;-82
2023/01/19 00:08:49;;;;;;;26.77;9.75;;;;;;;0.52;75.90;99812.34;5017544;28;20128;-85
2023/01/19 00:11:17;;;;;;;31.25;13.23;;;;;;;0.38;75.73;99801.63;5032472;28;20037;-83
2023/01/19 00:13:48;;;;;;;29.10;12.23;;;;;;;0.46;75.55;99794.19;5032543;28;20098;-82
2023/01/19 00:16:21;;;;;;;26.65;11.10;;;;;;;0.38;76.13;99782.84;5015808;28;20037;-79
2023/01/19 00:18:49;;;;;;;27.15;11.13;;;;;;;0.39;76.32;99785.47;5031943;28;20098;-82
2023/01/19 00:21:16;;;;;;;33.22;11.35;;;;;;;0.28;75.93;99781.66;5033518;28;20418;-82
2023/01/19 00:23:46;;;;;;;37.45;13.23;;;;;;;0.13;76.05;99752.19;5031540;28;20095;-82
2023/01/19 00:26:16;;;;;;;29.40;12.35;;;;;;;0.32;76.96;99804.00;5014903;28;20045;-82
2023/01/19 00:28:43;;;;;;;37.70;12.30;;;;;;;-0.26;77.17;99683.56;4999026;28;20049;-83
2023/01/19 00:31:09;;;;;;;44.15;14.35;;;;;;;0.28;76.77;99782.56;5032812;28;20041;-82
2023/01/19 00:33:36;;;;;;;38.95;13.50;;;;;;;0.10;77.39;99744.41;5032738;28;20033;-83
2023/01/19 00:36:03;;;;;;;32.25;12.82;;;;;;;0.10;77.06;99802.44;5000794;28;20052;-82
2023/01/19 00:38:29;;;;;;;41.05;12.85;;;;;;;0.28;77.14;99809.81;5033108;28;20471;-82
2023/01/19 00:40:55;;;;;;;28.05;12.32;;;;;;;0.07;77.64;99758.81;5032704;28;20099;-83
2023/01/19 00:43:22;;;;;;;39.22;13.23;;;;;;;0.24;77.86;99798.63;5020243;28;20037;-84
2023/01/19 00:45:47;;;;;;;42.03;13.55;;;;;;;-0.03;77.69;99748.25;5040385;28;20041;-83
2023/01/19 00:48:13;;;;;;;29.95;13.00;;;;;;;0.23;78.06;99786.66;5009748;28;20048;-82
2023/01/19 00:50:42;;;;;;;29.83;11.02;;;;;;;0.25;78.46;99796.91;5033375;28;20037;-80
2023/01/19 00:53:08;;;;;;;26.38;10.45;;;;;;;0.21;78.56;99790.00;5052054;28;20032;-81
2023/01/19 00:55:36;;;;;;;33.97;11.05;;;;;;;0.08;78.43;99752.88;5052820;28;20072;-81
2023/01/19 00:58:02;;;;;;;25.35;8.98;;;;;;;0.17;78.63;99801.78;5033981;28;20033;-82
2023/01/19 01:00:31;;;;;;;39.58;13.13;;;;;;;0.17;79.09;99777.91;5044278;28;20051;-81
2023/01/19 01:02:57;;;;;;;30.63;11.23;;;;;;;0.20;78.83;99773.75;5042237;28;20118;-81
2023/01/19 01:05:23;;;;;;;35.00;12.10;;;;;;;0.08;79.07;99763.97;5044049;28;20041;-83
2023/01/19 01:07:49;;;;;;;26.42;9.95;;;;;;;0.05;78.54;99773.25;5025347;28;20097;-81
2023/01/19 01:10:28;;;;;;;24.88;9.75;;;;;;;-0.17;78.57;99708.56;5037006;28;20135;-82
2023/01/19 01:12:54;;;;;;;30.90;11.45;;;;;;;0.08;78.78;99781.88;5032878;28;20042;-83
2023/01/19 01:15:20;;;;;;;29.42;10.23;;;;;;;0.08;79.04;99734.97;5055467;28;20021;-82
2023/01/19 01:17:47;;;;;;;30.38;10.43;;;;;;;0.23;79.54;99770.41;5041912;28;20048;-81
2023/01/19 01:20:19;;;;;;;32.78;12.73;;;;;;;0.05;79.63;99724.63;5022733;28;20042;-82
2023/01/19 01:22:46;;;;;;;;;;;;;;;0.29;79.77;99781.72;5041332;28;20040;-80
2023/01/19 01:25:18;;;;;;;19.30;9.15;;;;;;;0.13;79.60;99777.78;5023060;28;19955;-81
2023/01/19 01:27:44;;;;;;;26.70;11.18;;;;;;;0.20;79.89;99765.22;5038190;28;20033;-81
2023/01/19 01:30:12;;;;;;;25.55;9.82;;;;;;;0.20;79.04;99763.50;5037340;28;20470;-81
2023/01/19 01:32:39;;;;;;;15.50;7.57;;;;;;;0.24;79.92;99777.25;5018177;28;20108;-81
2023/01/19 01:35:07;;;;;;;31.40;11.73;;;;;;;0.26;80.02;99770.50;5034711;28;20037;-81
2023/01/19 01:37:34;;;;;;;21.20;9.68;;;;;;;0.09;79.87;99740.13;5016387;28;20069;-80
2023/01/19 01:40:01;;;;;;;26.45;11.18;;;;;;;0.36;79.85;99774.22;5038596;28;20076;-82
2023/01/19 01:42:31;;;;;;;34.33;12.48;;;;;;;0.32;79.58;99764.75;5038891;28;20048;-82
2023/01/19 01:45:00;;;;;;;25.13;9.98;;;;;;;0.29;79.29;99775.72;5022101;28;20028;-80
2023/01/19 01:47:48;;;;;;;27.35;9.77;;;;;;;0.11;79.39;99761.53;5022861;28;20140;-82
2023/01/19 01:50:21;;;;;;;30.23;11.23;;;;;;;0.27;79.97;99752.66;5040094;28;20088;-81
2023/01/19 01:53:00;;;;;;;25.17;10.40;;;;;;;0.38;80.37;99793.97;5038895;28;20037;-81
2023/01/19 01:55:28;;;;;;;26.92;11.55;;;;;;;0.24;80.37;99736.31;5038529;28;20099;-82
2023/01/19 01:58:00;;;;;;;25.98;10.82;;;;;;;0.07;79.85;99736.63;5020858;28;20445;-82
2023/01/19 02:00:26;;;;;;;27.88;12.13;;;;;;;0.25;79.81;99768.75;5037367;28;20083;-82
2023/01/19 02:02:54;;;;;;;28.52;11.55;;;;;;;0.39;80.28;99784.56;5021494;28;20037;-79
2023/01/19 02:05:32;;;;;;;31.50;12.60;;;;;;;0.45;80.42;99790.75;5053156;28;20044;-84
2023/01/19 02:13:53;;;;;;;23.90;10.38;;;;;;;0.37;80.28;99768.28;5037084;28;20098;-82
2023/01/19 02:16:19;;;;;;;27.50;12.07;;;;;;;0.48;79.65;99789.13;5052257;28;20030;-81
2023/01/19 02:18:45;;;;;;;35.55;12.50;;;;;;;0.30;80.14;99726.28;5031024;28;20518;-84
2023/01/19 02:21:18;;;;;;;31.95;11.73;;;;;;;0.57;80.44;99759.53;5035970;28;20037;-80
2023/01/19 02:23:51;;;;;;;25.77;11.15;;;;;;;0.59;80.14;99760.47;5032292;28;20033;-82
2023/01/19 02:26:22;;;;;;;28.48;10.65;;;;;;;0.62;80.46;99769.94;5034669;28;20041;-83
2023/01/19 02:28:58;;;;;;;26.75;10.32;;;;;;;0.55;80.16;99745.81;5031865;28;20101;-80
2023/01/19 02:31:26;;;;;;;26.42;12.18;;;;;;;0.39;79.49;99743.59;5031976;28;20045;-83
2023/01/19 02:33:53;;;;;;;29.25;11.27;;;;;;;0.05;79.72;99705.00;5033112;28;20060;-80
2023/01/19 02:36:24;;;;;;;26.77;10.55;;;;;;;0.35;80.34;99787.84;5014870;28;20596;-82
2023/01/19 02:38:55;;;;;;;20.05;8.70;;;;;;;0.21;80.12;99738.78;5034193;28;20077;-82
2023/01/19 02:41:27;;;;;;;30.45;11.85;;;;;;;-0.17;79.71;99668.50;5043548;28;20025;-82
2023/01/19 02:43:56;;;;;;;25.60;11.00;;;;;;;0.23;80.42;99749.91;5020930;28;20141;-82
2023/01/19 02:46:22;;;;;;;34.20;12.50;;;;;;;-0.04;79.67;99726.06;5015535;28;20037;-81
2023/01/19 02:48:48;;;;;;;32.33;11.02;;;;;;;0.05;80.23;99789.47;5031510;28;20095;-83
2023/01/19 02:51:21;;;;;;;23.85;10.43;;;;;;;-0.12;79.92;99758.22;5032755;28;20042;-80
2023/01/19 02:53:55;;;;;;;33.67;11.98;;;;;;;0.02;80.43;99770.59;5032278;28;20037;-83
2023/01/19 02:56:54;;;;;;;27.15;11.07;;;;;;;-0.01;80.62;99771.38;5031189;28;20042;-82
2023/01/19 02:59:42;;;;;;;38.67;12.82;;;;;;;0.06;80.83;99778.41;5014437;28;20072;-82
2023/01/19 03:02:46;;;;;;;31.38;10.80;;;;;;;0.01;80.32;99754.34;5013884;28;20049;-82
2023/01/19 03:05:21;;;;;;;31.00;10.80;;;;;;;0.00;80.68;99760.31;5015373;28;20041;-83
2023/01/19 03:07:56;;;;;;;27.90;11.43;;;;;;;0.03;80.34;99793.66;5034361;28;20445;-81
2023/01/19 03:10:30;;;;;;;19.92;8.85;;;;;;;0.05;80.42;99797.13;5033514;28;20425;-79
2023/01/19 03:13:29;;;;;;;20.10;9.00;;;;;;;0.03;80.31;99767.22;5033943;28;20044;-82
2023/01/19 03:16:28;;;;;;;29.02;10.88;;;;;;;0.12;80.80;99760.69;5032436;28;20085;-80
2023/01/19 03:19:01;;;;;;;25.05;8.85;;;;;;;0.15;80.58;99759.91;5017883;28;20063;-80
2023/01/19 03:21:28;;;;;;;26.63;9.60;;;;;;;0.17;80.37;99763.41;5034243;28;20045;-79
2023/01/19 03:23:59;;;;;;;24.00;9.85;;;;;;;0.15;80.91;99770.16;5039631;28;20052;-81
2023/01/19 03:26:29;;;;;;;24.17;10.00;;;;;;;0.03;80.80;99751.84;5044945;28;20068;-81
2023/01/19 03:28:58;;;;;;;20.67;9.65;;;;;;;0.10;80.50;99753.81;5044352;28;20059;-82
2023/01/19 03:31:27;;;;;;;26.73;10.90;;;;;;;0.08;80.54;99763.13;5045385;28;20060;-80
2023/01/19 03:33:58;;;;;;;26.95;10.52;;;;;;;0.09;80.60;99744.38;5043366;28;20056;-81
2023/01/19 03:36:31;;;;;;;27.80;11.20;;;;;;;0.13;80.26;99765.00;5042401;28;20086;-80
2023/01/19 03:39:01;;;;;;;26.23;10.55;;;;;;;0.06;80.62;99752.81;5041528;28;20123;-80
2023/01/19 03:41:30;;;;;;;29.17;11.30;;;;;;;0.20;81.47;99767.78;5037578;28;20091;-83
2023/01/19 03:43:58;;;;;;;20.25;7.80;;;;;;;0.13;80.73;99771.78;5037695;28;20493;-81
2023/01/19 03:46:25;;;;;;;18.42;8.23;;;;;;;0.12;81.14;99773.50;5015254;28;20041;-82
2023/01/19 03:48:51;;;;;;;26.38;11.27;;;;;;;0.17;80.57;99813.72;5033872;28;20030;-81
2023/01/19 03:51:18;;;;;;;23.75;10.73;;;;;;;0.06;80.57;99782.66;5019678;28;20049;-80
2023/01/19 03:53:45;;;;;;;26.88;10.50;;;;;;;0.23;80.78;99806.22;5038871;28;20029;-81
2023/01/19 03:56:24;;;;;;;23.35;9.68;;;;;;;0.36;80.78;99843.34;5045098;28;20123;-80
2023/01/19 03:58:51;;;;;;;25.80;9.90;;;;;;;0.15;80.82;99793.19;5042692;28;20591;-81
2023/01/19 04:01:21;;;;;;;23.13;9.55;;;;;;;0.42;80.95;99834.22;5045999;28;20045;-80
2023/01/19 04:03:54;;;;;;;25.75;10.55;;;;;;;0.37;80.65;99809.25;5015329;28;20042;-80
2023/01/19 04:06:21;;;;;;;28.20;10.45;;;;;;;0.44;80.51;99801.81;5047730;28;20505;-79
2023/01/19 04:08:49;;;;;;;26.20;10.07;;;;;;;0.46;81.02;99830.06;5013447;28;20033;-81
2023/01/19 04:11:16;;;;;;;23.70;9.40;;;;;;;0.42;81.01;99836.78;5039346;28;20041;-79
2023/01/19 04:13:43;;;;;;;24.92;10.93;;;;;;;0.39;81.00;99828.09;5021121;28;20079;-82
2023/01/19 04:16:19;;;;;;;24.48;9.68;;;;;;;0.29;80.79;99797.09;5036691;28;20052;-83
2023/01/19 04:18:45;;;;;;;28.30;11.20;;;;;;;0.35;81.40;99805.75;5034761;28;20049;-85
2023/01/19 04:21:11;;;;;;;22.00;10.00;;;;;;;0.12;81.00;99787.97;5019671;28;20056;-80
2023/01/19 04:23:43;;;;;;;20.08;8.48;;;;;;;0.47;80.99;99862.53;5042901;28;20095;-83
2023/01/19 04:26:12;;;;;;;22.80;10.38;;;;;;;0.52;81.28;99854.97;5027325;28;20043;-83
2023/01/19 04:28:38;;;;;;;18.73;8.63;;;;;;;0.48;81.53;99894.09;5050614;28;20053;-82
2023/01/19 04:31:05;;;;;;;20.55;10.07;;;;;;;0.31;81.64;99829.56;5034953;28;20128;-81
2023/01/19 04:33:32;;;;;;;23.65;9.98;;;;;;;0.53;81.51;99875.53;5035557;28;20514;-81
2023/01/19 04:35:58;;;;;;;27.08;11.35;;;;;;;0.43;81.27;99859.00;5033786;28;20041;-82
2023/01/19 04:38:25;;;;;;;25.75;10.77;;;;;;;0.43;81.30;99878.59;5035177;28;20498;-82
2023/01/19 04:40:53;;;;;;;26.02;11.30;;;;;;;0.60;81.06;99886.84;5033660;28;20094;-82
2023/01/19 04:43:20;;;;;;;23.17;9.38;;;;;;;0.54;81.84;99878.94;5035015;28;20091;-81
2023/01/19 04:45:47;;;;;;;21.10;9.48;;;;;;;0.56;81.03;99882.44;5054117;28;20072;-81
2023/01/19 04:48:24;;;;;;;24.42;11.35;;;;;;;0.67;81.35;99905.84;5038884;28;20033;-82
2023/01/19 04:51:04;;;;;;;25.45;10.90;;;;;;;0.70;81.20;99877.75;5023194;28;20052;-82
2023/01/19 04:53:42;;;;;;;23.00;10.23;;;;;;;-0.25;80.86;99735.56;5039013;28;20052;-82
2023/01/19 04:56:11;;;;;;;24.48;9.93;;;;;;;0.68;81.32;99890.50;5039477;28;20041;-80
2023/01/19 04:58:37;;;;;;;19.40;8.40;;;;;;;0.71;81.84;99887.19;5053629;28;20041;-82
2023/01/19 05:01:07;;;;;;;17.73;6.90;;;;;;;0.46;81.61;99850.53;5054679;28;20041;-84
2023/01/19 05:03:40;;;;;;;21.33;9.35;;;;;;;0.64;80.96;99860.50;5055605;28;20032;-83
2023/01/19 05:06:16;;;;;;;17.88;8.57;;;;;;;0.31;81.62;99803.97;5055243;28;20060;-82
2023/01/19 05:08:43;;;;;;;25.98;9.98;;;;;;;0.51;81.54;99846.44;5019564;28;20128;-81
2023/01/19 05:11:09;;;;;;;22.15;10.32;;;;;;;0.75;81.42;99886.47;5052525;28;20033;-85
2023/01/19 05:13:38;;;;;;;21.65;9.68;;;;;;;0.05;81.30;99757.91;5052763;28;20048;-82
2023/01/19 05:16:16;;;;;;;20.65;10.05;;;;;;;0.56;81.74;99856.81;5069093;28;20082;-84
2023/01/19 05:19:30;;;;;;;25.50;10.23;;;;;;;0.36;81.85;99794.72;5051518;28;20033;-83
2023/01/19 05:22:30;;;;;;;22.23;9.10;;;;;;;-0.40;81.48;99675.44;5012983;28;20543;-83
2023/01/19 05:24:57;;;;;;;18.65;8.90;;;;;;;0.60;81.75;99826.22;5051943;28;20184;-82
2023/01/19 05:27:23;;;;;;;25.98;9.65;;;;;;;0.29;81.40;99766.38;5053028;28;20106;-84
2023/01/19 05:29:49;;;;;;;22.17;9.77;;;;;;;0.74;81.91;99833.50;5054372;28;20148;-84
2023/01/19 05:32:15;;;;;;;24.77;10.93;;;;;;;0.96;81.16;99875.16;5057427;28;20036;-84
2023/01/19 05:34:41;;;;;;;25.40;10.77;;;;;;;0.89;81.82;99859.59;5039419;28;20103;-80
2023/01/19 05:37:07;;;;;;;22.83;10.25;;;;;;;0.89;81.71;99877.53;5056052;28;20048;-81
2023/01/19 05:39:33;;;;;;;17.77;8.23;;;;;;;0.83;81.85;99871.34;5055172;28;20071;-83
2023/01/19 05:41:59;;;;;;;19.13;8.80;;;;;;;1.00;81.65;99900.03;5054987;28;20041;-82
2023/01/19 05:44:25;;;;;;;21.55;9.65;;;;;;;0.84;81.30;99862.84;5074001;28;20066;-83
2023/01/19 05:46:51;;;;;;;25.65;10.20;;;;;;;0.81;81.22;99865.28;5072587;28;20106;-81
2023/01/19 05:49:17;;;;;;;24.60;9.75;;;;;;;0.99;81.90;99921.41;5059758;28;20525;-81
2023/01/19 05:51:44;;;;;;;29.98;12.85;;;;;;;1.03;82.22;99892.44;5072228;28;20125;-82
2023/01/19 05:54:15;;;;;;;29.65;12.23;;;;;;;0.94;81.73;99866.56;5058317;28;20041;-82
2023/01/19 05:56:42;;;;;;;23.70;11.10;;;;;;;1.11;82.22;99898.69;5055365;28;20045;-82
2023/01/19 05:59:08;;;;;;;26.60;10.20;;;;;;;1.16;82.02;99916.78;5037793;28;20029;-81
2023/01/19 06:01:36;;;;;;;26.95;11.02;;;;;;;1.09;81.38;99902.91;5038728;28;20086;-80
2023/01/19 06:04:12;;;;;;;27.15;10.57;;;;;;;1.17;81.39;99932.22;5070500;28;20041;-80
2023/01/19 06:06:48;;;;;;;20.23;9.73;;;;;;;0.86;81.52;99886.81;5052565;28;20040;-80
2023/01/19 06:09:32;;;;;;;32.88;11.98;;;;;;;0.20;81.74;99758.38;5042686;28;20028;-80
2023/01/19 06:11:58;;;;;;;24.42;10.82;;;;;;;0.35;81.54;99792.97;5040671;28;20458;-79
2023/01/19 06:14:26;;;;;;;23.33;11.00;;;;;;;1.05;81.45;99895.94;5053999;28;20045;-82
2023/01/19 06:17:02;;;;;;;28.00;11.90;;;;;;;0.06;81.86;99739.16;5037647;28;20072;-79
2023/01/19 06:19:31;;;;;;;26.60;12.05;;;;;;;1.17;81.62;99901.47;5054002;28;20067;-80
2023/01/19 06:22:01;;;;;;;31.35;12.70;;;;;;;1.32;81.23;99943.75;5055006;28;20045;-81
2023/01/19 06:24:28;;;;;;;26.45;11.60;;;;;;;1.32;81.75;99964.28;5053888;28;20482;-78
2023/01/19 06:26:54;;;;;;;28.83;11.38;;;;;;;1.37;81.56;99961.84;5036513;28;20124;-81
2023/01/19 06:29:21;;;;;;;28.13;11.32;;;;;;;1.43;81.74;99944.97;5054640;28;20041;-79
2023/01/19 06:31:48;;;;;;;27.63;11.85;;;;;;;1.11;81.52;99919.22;5056016;28;20098;-80
2023/01/19 06:34:14;;;;;;;29.98;11.98;;;;;;;1.26;81.75;99928.19;5058413;28;20114;-79
2023/01/19 06:36:41;;;;;;;34.40;13.05;;;;;;;1.39;81.53;99943.16;5047175;28;20128;-81
2023/01/19 06:39:08;;;;;;;26.67;11.35;;;;;;;1.39;81.93;99927.75;5062599;28;20132;-80
2023/01/19 06:41:37;;;;;;;26.35;11.50;;;;;;;1.57;81.20;99972.72;5065373;28;20060;-80
2023/01/19 06:44:04;;;;;;;30.40;12.75;;;;;;;1.61;82.09;99966.88;5048492;28;20041;-83
2023/01/19 06:46:34;;;;;;;33.80;12.68;;;;;;;1.52;81.63;99948.63;5064336;28;20045;-80
2023/01/19 06:49:10;;;;;;;22.40;11.02;;;;;;;1.52;81.46;99952.09;5068629;28;20083;-81
2023/01/19 06:55:35;;;;;;;29.00;13.13;;;;;;;1.58;81.63;99989.88;5054293;28;20052;-81
2023/01/19 06:58:27;;;;;;;;;;;;;;;;;;;;;
2023/01/19 07:01:05;;;;;;;21.05;9.73;;;;;;;0.90;81.49;99858.78;5060433;28;20045;-81
2023/01/19 07:03:41;;;;;;;24.85;11.68;;;;;;;1.17;81.33;99911.72;5046494;28;20115;-79
2023/01/19 07:06:08;;;;;;;31.77;12.05;;;;;;;1.60;81.50;99981.38;5028445;28;20067;-80
2023/01/19 07:08:48;;;;;;;28.13;10.55;;;;;;;0.59;81.23;99839.84;5046777;28;20119;-79
2023/01/19 07:11:20;;;;;;;24.48;10.93;;;;;;;0.53;81.47;99834.56;5051653;28;20068;-83
2023/01/19 07:14:22;;;;;;;31.42;12.40;;;;;;;0.27;81.14;99773.13;5059632;28;20040;-81
2023/01/19 07:16:52;;;;;;;27.35;12.57;;;;;;;1.58;80.93;100007.81;5035180;28;20045;-83
2023/01/19 07:19:18;;;;;;;26.58;11.63;;;;;;;1.38;81.28;99966.16;5025712;28;20041;-82
2023/01/19 07:21:48;;;;;;;27.80;12.85;;;;;;;1.27;81.21;99942.75;5040616;28;20041;-82
2023/01/19 07:24:14;;;;;;;25.85;11.80;;;;;;;1.09;81.32;99912.31;5040021;28;20128;-82
2023/01/19 07:26:41;;;;;;;34.10;12.82;;;;;;;1.47;81.64;99976.72;5062010;28;20119;-82
2023/01/19 07:29:07;;;;;;;27.42;12.85;;;;;;;1.61;81.19;99989.97;5027755;28;20513;-81
2023/01/19 07:31:33;;;;;;;35.53;13.32;;;;;;;0.74;81.37;99818.97;5058863;28;20460;-82
2023/01/19 07:34:14;;;;;;;30.70;13.07;;;;;;;1.76;81.07;100028.91;5059160;28;20029;-83
2023/01/19 07:36:44;;;;;;;26.23;12.10;;;;;;;1.78;81.13;100021.25;5049112;28;20048;-80
2023/01/19 07:39:10;;;;;;;28.83;12.80;;;;;;;1.81;81.44;100029.03;5065774;28;20048;-85
2023/01/19 07:41:37;;;;;;;30.90;13.15;;;;;;;1.41;81.03;99938.03;5071144;28;20029;-80
2023/01/19 07:44:14;;;;;;;24.08;9.95;;;;;;;1.08;80.87;99931.91;5059595;28;20041;-86
2023/01/19 07:46:42;;;;;;;27.88;11.57;;;;;;;1.57;80.54;100021.47;5058171;28;20104;-84
2023/01/19 07:49:14;;;;;;;34.83;11.50;;;;;;;1.53;80.68;100040.16;5057863;28;20041;-82
2023/01/19 07:51:40;;;;;;;28.38;12.00;;;;;;;1.51;81.05;100047.81;5059275;28;20523;-82
2023/01/19 07:54:07;;;;;;;30.38;12.43;;;;;;;0.48;80.94;99873.63;5063869;28;20105;-82
2023/01/19 07:56:34;;;;;;;33.95;14.40;;;;;;;1.58;80.89;100033.47;5042863;28;20070;-81
2023/01/19 07:59:00;;;;;;;31.02;13.77;;;;;;;1.42;80.87;100009.91;5060637;28;20430;-81
2023/01/19 08:01:30;;;;;;;35.22;13.27;;;;;;;1.31;80.65;99985.63;5040299;28;20044;-82
2023/01/19 08:04:39;;;;;;;34.10;15.10;;;;;;;0.69;80.96;99887.13;5061576;28;20037;-82
2023/01/19 08:07:57;;;;;;;37.08;13.63;;;;;;;1.59;80.67;100051.47;5062389;28;20055;-84
2023/01/19 08:11:05;;;;;;;32.22;13.30;;;;;;;1.64;81.11;100064.47;5052810;28;20067;-80
2023/01/19 08:13:34;;;;;;;29.77;14.13;;;;;;;0.48;80.73;99879.63;5058949;28;20045;-81
2023/01/19 08:16:00;;;;;;;32.28;12.93;;;;;;;1.17;80.82;99998.88;5044657;28;20032;-82
2023/01/19 08:18:26;;;;;;;35.88;15.65;;;;;;;0.74;80.90;99936.81;5047209;28;20503;-80
2023/01/19 08:20:57;;;;;;;33.22;14.07;;;;;;;1.61;81.00;100079.75;5052246;28;20090;-79
2023/01/19 08:23:23;;;;;;;32.93;14.90;;;;;;;0.89;80.73;99935.56;5058018;28;20118;-79
2023/01/19 08:25:49;;;;;;;37.58;15.48;;;;;;;1.83;81.33;100072.72;5045007;28;20045;-78
2023/01/19 08:28:19;;;;;;;40.17;15.27;;;;;;;1.92;81.08;100073.88;5063015;28;20560;-79
2023/01/19 08:30:52;;;;;;;35.00;14.98;;;;;;;1.99;81.25;100080.06;5062442;28;20417;-80
2023/01/19 08:33:19;;;;;;;34.78;13.82;;;;;;;1.89;80.92;100073.78;5057932;28;20037;-81
2023/01/19 08:35:50;;;;;;;34.15;14.10;;;;;;;1.89;80.64;100085.72;5059799;28;20033;-80
2023/01/19 08:38:17;;;;;;;37.13;14.85;;;;;;;2.00;81.26;100092.09;5059188;28;20037;-82
2023/01/19 08:40:45;;;;;;;34.22;14.88;;;;;;;1.88;80.53;100089.13;5057664;28;20044;-81
2023/01/19 08:43:14;;;;;;;29.20;13.48;;;;;;;2.04;80.68;100100.75;5054033;28;20098;-80
2023/01/19 08:45:47;;;;;;;36.25;14.75;;;;;;;2.05;80.75;100093.09;5022702;28;20095;-81
2023/01/19 08:48:16;;;;;;;33.60;13.38;;;;;;;1.87;80.69;100072.00;5038293;28;20544;-81
2023/01/19 08:50:45;;;;;;;37.75;16.45;;;;;;;1.90;80.65;100056.69;5047781;28;20045;-78
2023/01/19 08:53:16;;;;;;;31.65;13.93;;;;;;;1.43;80.47;99983.44;5038605;28;20040;-83
2023/01/19 08:55:46;;;;;;;27.33;12.43;;;;;;;1.40;80.19;99978.22;5041753;28;20036;-78
2023/01/19 08:58:13;;;;;;;31.88;13.45;;;;;;;1.29;80.44;99959.06;5035329;28;20037;-81
2023/01/19 09:00:39;;;;;;;30.20;12.73;;;;;;;1.97;79.95;100079.16;5053345;28;20098;-80
2023/01/19 09:03:10;;;;;;;30.02;12.95;;;;;;;2.00;80.23;100081.81;5025881;28;20148;-81
2023/01/19 09:05:37;;;;;;;30.95;14.52;;;;;;;1.99;81.00;100066.38;5048219;28;20098;-81
2023/01/19 09:08:07;;;;;;;32.08;15.25;;;;;;;2.09;80.61;100074.41;5047071;28;20041;-81
2023/01/19 09:10:36;;;;;;;28.02;12.95;;;;;;;2.10;80.07;100086.38;5049479;28;20090;-81
2023/01/19 09:13:09;;;;;;;32.13;12.85;;;;;;;2.11;80.39;100092.41;5038146;28;20523;-80
2023/01/19 09:15:37;;;;;;;32.13;14.50;;;;;;;1.93;80.50;100052.53;5037993;28;20502;-81
2023/01/19 09:18:06;;;;;;;30.10;12.27;;;;;;;2.14;79.93;100073.66;5047751;28;20037;-80
2023/01/19 09:20:37;;;;;;;33.83;14.15;;;;;;;2.08;80.24;100077.78;5026099;28;20049;-81
2023/01/19 09:23:04;;;;;;;;;;;;;;;2.22;80.68;100078.19;5016028;28;20045;-80
2023/01/19 09:25:33;;;;;;;31.95;13.00;;;;;;;2.17;80.77;100079.75;5035103;28;19939;-80
2023/01/19 09:28:02;;;;;;;33.63;15.85;;;;;;;1.95;80.39;100042.28;5051317;28;20037;-83
2023/01/19 09:30:40;;;;;;;33.85;13.45;;;;;;;1.60;80.07;99985.66;5050740;28;20072;-79
2023/01/19 09:33:23;;;;;;;26.77;12.68;;;;;;;1.70;80.09;99987.66;5049719;28;20155;-81
2023/01/19 09:35:58;;;;;;;32.20;13.73;;;;;;;1.95;80.11;100042.28;5050064;28;20535;-80
2023/01/19 09:38:31;;;;;;;27.15;12.05;;;;;;;1.11;80.25;99880.75;5044307;28;20116;-80
2023/01/19 09:41:04;;;;;;;33.90;13.80;;;;;;;1.25;79.42;99927.34;5011898;28;20049;-81
2023/01/19 09:43:58;;;;;;;40.83;16.92;;;;;;;1.48;79.83;99956.22;5049338;28;21095;-82
2023/01/19 09:46:51;;;;;;;32.78;15.60;;;;;;;1.12;79.96;99910.69;5057787;28;21020;-79
2023/01/19 09:49:32;;;;;;;33.10;15.07;;;;;;;1.71;80.10;100003.94;5050053;28;20049;-79
2023/01/19 09:52:15;;;;;;;30.63;13.88;;;;;;;1.09;79.79;99884.97;5028802;28;20072;-81
2023/01/19 09:54:56;;;;;;;34.85;15.50;;;;;;;1.98;79.41;100038.97;5043825;28;20058;-83
2023/01/19 09:57:24;;;;;;;33.97;15.68;;;;;;;1.92;80.25;100040.53;5053120;28;20041;-79
2023/01/19 09:59:59;;;;;;;39.20;14.48;;;;;;;1.99;79.77;100039.00;5045016;28;20056;-81
2023/01/19 10:02:44;;;;;;;32.53;14.43;;;;;;;1.50;79.93;99953.72;5031004;28;20095;-79
2023/01/19 10:05:16;;;;;;;;;;;;;;;2.31;80.30;100072.47;4998267;28;20059;-82
2023/01/19 10:07:52;;;;;;;30.83;13.23;;;;;;;2.41;79.92;100071.88;5031928;28;20567;-83
2023/01/19 10:10:35;;;;;;;30.98;14.25;;;;;;;2.50;80.19;100068.72;5036808;28;20034;-79
2023/01/19 10:13:18;;;;;;;36.95;14.43;;;;;;;2.54;79.77;100087.63;5000845;28;20053;-81
2023/01/19 10:16:32;;;;;;;36.17;14.52;;;;;;;2.50;79.54;100085.84;5017438;28;20064;-81
2023/01/19 10:19:21;;;;;;;28.88;13.48;;;;;;;2.43;79.60;100077.06;5015766;28;20046;-79
2023/01/19 10:21:50;;;;;;;33.72;14.02;;;;;;;2.39;79.65;100076.09;5027491;28;20037;-79
2023/01/19 10:24:28;;;;;;;31.63;13.35;;;;;;;2.06;79.15;100046.06;5043428;28;20049;-83
2023/01/19 10:26:56;;;;;;;42.03;15.02;;;;;;;2.16;79.71;100069.44;5037937;28;20040;-81
2023/01/19 10:29:36;;;;;;;40.85;14.52;;;;;;;1.99;79.40;100051.84;5054039;28;20049;-81
2023/01/19 10:32:11;;;;;;;38.08;14.63;;;;;;;2.21;79.60;100085.84;5037212;28;20041;-79
2023/01/19 10:34:37;;;;;;;38.92;15.68;;;;;;;2.37;80.18;100089.75;5062416;28;20045;-78
2023/01/19 10:37:14;;;;;;;40.13;16.23;;;;;;;2.19;79.33;100048.97;5044304;28;20047;-78
2023/01/19 10:39:41;;;;;;;31.52;12.70;;;;;;;2.22;79.05;100056.78;5027370;28;20135;-78
2023/01/19 10:42:18;;;;;;;36.78;15.25;;;;;;;2.36;79.96;100076.00;5019938;28;20099;-80
2023/01/19 10:44:45;;;;;;;34.88;15.00;;;;;;;2.22;79.34;100057.63;5053964;28;20131;-81
2023/01/19 10:47:17;;;;;;;30.80;13.25;;;;;;;2.17;79.56;100063.47;5047519;28;20045;-81
2023/01/19 10:49:45;;;;;;;37.17;15.30;;;;;;;2.24;80.11;100048.28;5038097;28;20056;-79
2023/01/19 10:52:38;;;;;;;47.05;16.52;;;;;;;2.05;79.39;100040.88;5037718;28;20045;-80
2023/01/19 10:55:07;;;;;;;37.63;13.82;;;;;;;2.12;79.50;100063.34;5031901;28;20034;-80
2023/01/19 10:57:42;;;;;;;34.15;12.88;;;;;;;2.05;79.38;100062.28;5037002;28;20048;-79
2023/01/19 11:00:41;;;;;;;36.10;14.65;;;;;;;2.09;79.50;100078.66;5044797;28;20086;-81
2023/01/19 11:03:33;;;;;;;35.50;13.82;;;;;;;1.44;79.54;99959.53;5013119;28;20137;-83
2023/01/19 11:06:21;;;;;;;31.83;15.13;;;;;;;2.13;79.33;100077.03;5051556;28;20460;-81
2023/01/19 11:09:14;;;;;;;31.55;14.38;;;;;;;1.53;79.02;100005.13;5016603;28;20037;-80
2023/01/19 11:12:04;;;;;;;40.22;17.92;;;;;;;2.10;79.78;100100.94;5024280;28;20112;-80
2023/01/19 11:14:31;;;;;;;36.80;14.57;;;;;;;1.41;78.87;99979.06;5014900;28;20053;-79
2023/01/19 11:16:57;;;;;;;37.88;16.60;;;;;;;1.67;78.68;100017.50;5035371;28;20052;-78
2023/01/19 11:19:30;;;;;;;36.70;15.30;;;;;;;1.89;79.24;100071.22;5034577;28;20049;-78
2023/01/19 11:22:21;;;;;;;38.28;16.60;;;;;;;1.98;79.01;100095.44;5052693;28;20048;-83
2023/01/19 11:24:48;;;;;;;43.60;18.90;;;;;;;1.43;79.10;100011.66;5050781;28;20041;-82
2023/01/19 11:27:21;;;;;;;45.70;18.50;;;;;;;1.64;79.42;100052.50;5037031;28;20036;-84
2023/01/19 11:29:56;;;;;;;32.78;13.43;;;;;;;0.87;78.67;99935.53;5049098;28;20049;-81
2023/01/19 11:32:37;;;;;;;35.75;13.73;;;;;;;1.38;79.56;100014.88;5031563;28;20105;-84
2023/01/19 11:35:34;;;;;;;36.58;14.55;;;;;;;1.92;78.59;100098.66;5049101;28;20041;-85
2023/01/19 11:38:26;;;;;;;32.95;14.18;;;;;;;1.85;79.11;100097.59;5049306;28;20034;-84
2023/01/19 11:40:57;;;;;;;34.53;14.30;;;;;;;0.55;79.23;99894.34;5020118;28;20068;-81
2023/01/19 11:43:30;;;;;;;34.20;13.98;;;;;;;1.87;78.65;100129.34;5058937;28;20379;-83
2023/01/19 11:46:01;;;;;;;28.95;12.70;;;;;;;1.12;79.08;99989.28;5045039;28;20040;-82
2023/01/19 11:48:59;;;;;;;34.80;13.93;;;;;;;0.68;78.98;99922.94;5045927;28;20048;-82
2023/01/19 11:51:45;;;;;;;32.42;13.93;;;;;;;0.95;79.14;99981.06;5047785;28;20055;-82
2023/01/19 11:54:22;;;;;;;37.33;13.40;;;;;;;1.50;78.95;100069.16;5046139;28;20037;-84
2023/01/19 11:56:52;;;;;;;31.83;12.63;;;;;;;1.49;78.82;100075.97;5049811;28;20036;-82
2023/01/19 11:59:23;;;;;;;35.95;13.90;;;;;;;1.32;78.59;100041.22;5040387;28;20040;-82
2023/01/19 12:02:10;;;;;;;37.08;14.20;;;;;;;1.68;79.19;100083.38;5057264;28;20044;-82